Terminal Aerodrome Forecast
Issued by NWS Pueblo, CO

Home | Current Version | Previous Version | Text Only | Print | Product List | Glossary On
Versions: 1 2 3 4 5 6 7 8 9 10 11 12 13 14 15 16 17 18 19 20 21 22 23 24 25 26 27 28 29 30 31 32 33 34 35 36 37 38 39 40 41
000
FTUS45 KPUB 031137
TAFPUB
TAF
KPUB 031137Z 0312/0412 27007KT P6SM SCT150 BKN250
     FM031800 22008KT P6SM SCT130 BKN200
     FM032300 28012G22KT P6SM SCT100 BKN150
     FM040300 32012KT P6SM SCT120 BKN200
     FM040700 VRB06KT P6SM SCT150 BKN250=

USA.gov is the U.S. government's official web portal to all federal, state and local government web resources and services.